Memphis, MO

9:52 AM CDT on July 27, 2017 (GMT -0500)
NE Memphis | | Change Station

Elev 774 ft 40.47 °N, 92.17 °W | Updated 17 seconds ago

Overcast
Overcast
75.0 °F
Feels Like 72 °F
N
0.0
Wind Variable Wind from NW
Gusts 0.0 mph

Today
High -- | Low -- °F
--% Chance of Precip.
Yesterday
High -- | Low -- °F
Precip. -- in
Pressure 29.98 in
Visibility 10.0 miles
Clouds Scattered Clouds 1000 ft
Overcast 1500 ft
Heat Index 72 °F
Dew Point 75 °F
Humidity 99%
Rainfall 0.20 in
Snow Depth Not available.
6:01 AM 8:28 PM
Waxing Crescent, 21% visible
SPECI KIRK 271446Z AUTO 03007KT 10SM SCT010 OVC015 26/23 A2998 RMK AO2 T02560228
Pressure 29.98 in
Visibility 10.0 miles
Clouds Scattered Clouds 1000 ft
Overcast 1500 ft
Heat Index 72 °F
Dew Point 75 °F
Humidity 99%
Rainfall 0.20 in
Snow Depth Not available.
6:01 AM 8:28 PM
Waxing Crescent, 21% visible
SPECI KIRK 271446Z AUTO 03007KT 10SM SCT010 OVC015 26/23 A2998 RMK AO2 T02560228

Get Severe Weather Alerts

Thanks for signing up!

Be on the lookout for a verification email in your inbox.

You'll start receiving the daily forecast at 6 AM.

×

10-Day Weather Forecast

Almanac

Astronomy

Jul. 27, 2017 Rise Set
Actual Time
Civil Twilight
Nautical Twilight
Astronomical Twilight
Moon
Length of Visible Light
Length of Day
Tomorrow will be .
, % of the Moon is Illuminated

Today's Extremes

State Highs State Lows

Community

WunderPhotos

Category 6

Welcome to Category 6. This is the collective home for Weather Underground's featured writeups by Dr. Jeff Masters (right), Bob Henson (left), Chris Burt, and other regular contributors.

Nearby

Air Quality

  Air Quality AQ Index Pollutant
Not available.

Snow Depth

Station Depth Elevation

Earthquake Activity

City Distance Mag. Time & Date
Minimum magnitude displayed is 2.5.

Coastal Water Temperatures

Place Temperature

Stations

Nearby Weather Stations

Station Location Temp. Windchill Dew Point Humidity Wind Precip. Elev Updated Type
                   

Watches & Warnings

There are currently no watches in effect.